FRS93 EDFM-EDRY
Flight info
| Callsign | FRS93 |
|---|---|
| Flight time | 0h -15m |
| Altitude | 3500 |
| Route | 4925N00831E DCT ANEKI DCT NEKLO |
| Aircraft | BE35/L-BDFGLORY/S |
Departure
| Time | 2026-05-08 18:36 |
|---|---|
| Airport | Mannheim-City Airport (EDFM) |
Arrival
| Time | 2026-05-08 18:21 |
|---|---|
| Airport | Speyer Airfield (EDRY) |
| Time | Latitude | Longitude | Altitude | Speed | Heading |
|---|---|---|---|---|---|
| 2026-05-08 18:21 | 49.47559 | 8.52111 | 315 ft | 0 kts | 181° |
| 2026-05-08 18:31 | 49.47558 | 8.52111 | 310 ft | 1 kts | 181° |
| 2026-05-08 18:31 | 49.47538 | 8.52156 | 313 ft | 9 kts | 118° |
| 2026-05-08 18:31 | 49.47447 | 8.52168 | 313 ft | 21 kts | 181° |
| 2026-05-08 18:31 | 49.47299 | 8.52153 | 313 ft | 18 kts | 182° |
| 2026-05-08 18:32 | 49.47213 | 8.52110 | 313 ft | 12 kts | 232° |
| 2026-05-08 18:32 | 49.47199 | 8.51982 | 313 ft | 13 kts | 262° |
| 2026-05-08 18:32 | 49.47205 | 8.51862 | 313 ft | 11 kts | 274° |
| 2026-05-08 18:32 | 49.47208 | 8.51739 | 313 ft | 13 kts | 269° |
| 2026-05-08 18:33 | 49.47214 | 8.51582 | 313 ft | 16 kts | 274° |
| 2026-05-08 18:33 | 49.47221 | 8.51398 | 313 ft | 18 kts | 272° |
| 2026-05-08 18:33 | 49.47228 | 8.51190 | 313 ft | 21 kts | 271° |
| 2026-05-08 18:33 | 49.47235 | 8.50963 | 313 ft | 19 kts | 273° |
| 2026-05-08 18:34 | 49.47237 | 8.50868 | 313 ft | 8 kts | 276° |
| 2026-05-08 18:34 | 49.47240 | 8.50786 | 313 ft | 7 kts | 271° |
| 2026-05-08 18:34 | 49.47248 | 8.50750 | 313 ft | 0 kts | 308° |
| 2026-05-08 18:35 | 49.47259 | 8.50723 | 313 ft | 9 kts | 300° |
| 2026-05-08 18:35 | 49.47285 | 8.50680 | 313 ft | 3 kts | 2° |
| 2026-05-08 18:35 | 49.47295 | 8.50688 | 313 ft | 0 kts | 76° |
| 2026-05-08 18:35 | 49.47295 | 8.50689 | 313 ft | 0 kts | 78° |
| 2026-05-08 18:36 | 49.47291 | 8.50910 | 313 ft | 47 kts | 95° |
| 2026-05-08 18:36 | 49.47250 | 8.51611 | 441 ft | 73 kts | 91° |
| 2026-05-08 18:36 | 49.47150 | 8.52337 | 771 ft | 72 kts | 112° |
| 2026-05-08 18:36 | 49.46643 | 8.52696 | 1064 ft | 91 kts | 186° |
| 2026-05-08 18:37 | 49.46040 | 8.52262 | 1372 ft | 97 kts | 223° |
| 2026-05-08 18:37 | 49.45549 | 8.51552 | 1740 ft | 96 kts | 217° |
| 2026-05-08 18:37 | 49.44906 | 8.51115 | 1999 ft | 110 kts | 199° |
| 2026-05-08 18:37 | 49.44066 | 8.50941 | 2120 ft | 131 kts | 179° |
| 2026-05-08 18:38 | 49.43075 | 8.50913 | 2258 ft | 144 kts | 178° |
| 2026-05-08 18:38 | 49.42066 | 8.50909 | 2492 ft | 147 kts | 175° |
| 2026-05-08 18:38 | 49.41045 | 8.50970 | 2685 ft | 148 kts | 175° |
| 2026-05-08 18:38 | 49.40000 | 8.50812 | 2645 ft | 163 kts | 200° |
| 2026-05-08 18:39 | 49.38949 | 8.50195 | 2688 ft | 152 kts | 199° |
| 2026-05-08 18:39 | 49.37972 | 8.49588 | 2552 ft | 149 kts | 204° |
| 2026-05-08 18:39 | 49.37037 | 8.48974 | 2320 ft | 145 kts | 199° |
| 2026-05-08 18:39 | 49.36226 | 8.48329 | 2321 ft | 118 kts | 213° |
| 2026-05-08 18:40 | 49.35552 | 8.47595 | 1982 ft | 120 kts | 216° |
| 2026-05-08 18:40 | 49.34855 | 8.46799 | 1651 ft | 122 kts | 223° |
| 2026-05-08 18:40 | 49.34283 | 8.46125 | 1719 ft | 92 kts | 214° |
| 2026-05-08 18:40 | 49.33768 | 8.45636 | 1611 ft | 86 kts | 209° |
| 2026-05-08 18:41 | 49.33275 | 8.45175 | 1487 ft | 82 kts | 214° |
| 2026-05-08 18:41 | 49.32770 | 8.44748 | 1294 ft | 86 kts | 200° |
| 2026-05-08 18:41 | 49.32187 | 8.44564 | 1012 ft | 84 kts | 178° |
| 2026-05-08 18:41 | 49.31621 | 8.44687 | 740 ft | 83 kts | 158° |
| 2026-05-08 18:42 | 49.31061 | 8.44927 | 455 ft | 84 kts | 153° |
| 2026-05-08 18:42 | 49.30578 | 8.45135 | 323 ft | 69 kts | 159° |
| 2026-05-08 18:42 | 49.30270 | 8.45275 | 322 ft | 25 kts | 154° |
| 2026-05-08 18:42 | 49.30207 | 8.45410 | 323 ft | 6 kts | 85° |
| 2026-05-08 18:43 | 49.30208 | 8.45426 | 323 ft | 0 kts | 81° |